Isola Bianca — ICLD — position and weather

sailwx.info

Track history (hours):
 
Tides and Currents Weather Stations Pressure Air Temp Water Temp Dewpoint Dewpoint Depression Visibility Wind Speed Wind Dir Waves Ship Positions

Isola Bianca

Last reported at 2017-Apr-24 22:20 UTC. Time now 2017-Apr-26 07:53 UTC.
Position N 15°21' W 017°42'.

Length 183 m; draft 7.5 m.

Type: Ship. MMSI: 247245200.

Date/timePositionNaut miles runAvg speedWind from/ knotsBaromVisibWave heightAir tempDewpointWater temp
2017-Apr-24 22:20N 15°21' W 017°42'412.9
2017-Apr-24 22:00N 15°17' W 017°42'713.0
2017-Apr-24 21:30N 15°10' W 017°42'22112.3
2017-Apr-24 03:32N 11°31' W 017°19'012.5
2017-Apr-24 03:30N 11°30' W 017°19'3012.7
2017-Apr-24 01:07N 11°02' W 017°09'112.7
2017-Apr-24 01:00N 11°00' W 017°08'712.6
2017-Apr-24 00:25N 10°53' W 017°06'1112.9
2017-Apr-23 23:35N 10°43' W 017°02'1212.8
2017-Apr-23 22:38N 10°33' W 016°56'413.0
2017-Apr-23 22:21N 10°30' W 016°53'513.2
2017-Apr-23 22:00N 10°26' W 016°51'2212.6
2017-Apr-23 20:15N 10°07' W 016°38'312.6
2017-Apr-23 20:00N 10°05' W 016°37'612.6
2017-Apr-23 19:30N 10°00' W 016°32'612.4
2017-Apr-23 19:00N 09°56' W 016°28'612.6
2017-Apr-23 18:30N 09°51' W 016°23'612.2
2017-Apr-23 18:00N 09°47' W 016°19'1112.5
2017-Apr-23 17:10N 09°40' W 016°11'212.7
2017-Apr-23 17:00N 09°38' W 016°10'612.3
2017-Apr-23 16:30N 09°34' W 016°06'612.5
2017-Apr-23 16:00N 09°29' W 016°01'612.7
2017-Apr-23 15:30N 09°25' W 015°57'612.6
2017-Apr-23 15:00N 09°20' W 015°52'1212.5
2017-Apr-23 14:00N 09°12' W 015°43'612.4
2017-Apr-23 13:30N 09°07' W 015°39'  
Track history (hours):
 
Tides and Currents Weather Stations Pressure Air Temp Water Temp Dewpoint Dewpoint Depression Visibility Wind Speed Wind Dir Waves Ship Positions

Isola Bianca

Last reported at 2017-Apr-24 22:20 UTC. Time now 2017-Apr-26 07:53 UTC.
Position N 15°21' W 017°42'.

Length 183 m; draft 7.5 m.

Type: Ship. MMSI: 247245200.

Date/timePositionNaut miles runAvg speedWind from/ knotsBaromVisibWave heightAir tempDewpointWater temp
2017-Apr-24 22:20N 15°21' W 017°42'412.9
2017-Apr-24 22:00N 15°17' W 017°42'713.0
2017-Apr-24 21:30N 15°10' W 017°42'22112.3
2017-Apr-24 03:32N 11°31' W 017°19'012.5
2017-Apr-24 03:30N 11°30' W 017°19'3012.7
2017-Apr-24 01:07N 11°02' W 017°09'112.7
2017-Apr-24 01:00N 11°00' W 017°08'712.6
2017-Apr-24 00:25N 10°53' W 017°06'1112.9
2017-Apr-23 23:35N 10°43' W 017°02'1212.8
2017-Apr-23 22:38N 10°33' W 016°56'413.0
2017-Apr-23 22:21N 10°30' W 016°53'513.2
2017-Apr-23 22:00N 10°26' W 016°51'2212.6
2017-Apr-23 20:15N 10°07' W 016°38'312.6
2017-Apr-23 20:00N 10°05' W 016°37'612.6
2017-Apr-23 19:30N 10°00' W 016°32'612.4
2017-Apr-23 19:00N 09°56' W 016°28'612.6
2017-Apr-23 18:30N 09°51' W 016°23'612.2
2017-Apr-23 18:00N 09°47' W 016°19'1112.5
2017-Apr-23 17:10N 09°40' W 016°11'212.7
2017-Apr-23 17:00N 09°38' W 016°10'612.3
2017-Apr-23 16:30N 09°34' W 016°06'612.5
2017-Apr-23 16:00N 09°29' W 016°01'612.7
2017-Apr-23 15:30N 09°25' W 015°57'612.6
2017-Apr-23 15:00N 09°20' W 015°52'1212.5
2017-Apr-23 14:00N 09°12' W 015°43'612.4
2017-Apr-23 13:30N 09°07' W 015°39'  

Dump ship's entire track history